createdAt,value
2019-04-30T00:00:00.375Z,92.43
2019-04-30T00:02:42.446Z,92.12
2019-04-30T00:05:17.127Z,91.81
2019-04-30T00:07:40.770Z,92.04
2019-04-30T00:10:09.088Z,91.99
2019-04-30T00:12:39.544Z,92.06
2019-04-30T00:15:11.049Z,91.95
2019-04-30T00:17:37.354Z,91.72
2019-04-30T00:20:06.382Z,91.83
2019-04-30T00:22:39.347Z,91.62
2019-04-30T00:25:06.457Z,91.40
2019-04-30T00:27:35.604Z,91.57
2019-04-30T00:30:09.111Z,91.61
2019-04-30T00:32:43.521Z,91.63
2019-04-30T00:35:11.920Z,91.86
2019-04-30T00:37:37.527Z,91.93
2019-04-30T00:40:06.152Z,91.92
2019-04-30T00:42:35.767Z,91.96
2019-04-30T00:45:09.606Z,91.71
2019-04-30T00:47:39.592Z,92.35
2019-04-30T00:50:06.066Z,92.61
2019-04-30T00:52:37.035Z,92.89
2019-04-30T00:55:09.039Z,92.71
2019-04-30T00:57:37.311Z,92.92
2019-04-30T01:00:10.678Z,93.15
2019-04-30T01:02:40.566Z,93.26
2019-04-30T01:05:10.478Z,93.31
2019-04-30T01:07:39.600Z,93.32
2019-04-30T01:10:10.756Z,93.32
2019-04-30T01:12:46.857Z,93.37
2019-04-30T01:15:11.173Z,93.39
2019-04-30T01:17:40.881Z,93.50
2019-04-30T01:20:09.460Z,93.18
2019-04-30T01:22:38.835Z,93.15
2019-04-30T01:25:13.011Z,92.98
2019-04-30T01:27:39.455Z,92.84
2019-04-30T01:30:13.347Z,92.76
2019-04-30T01:32:39.503Z,92.63
2019-04-30T01:35:08.921Z,92.38
2019-04-30T01:37:38.704Z,92.39
2019-04-30T01:40:10.549Z,92.35
2019-04-30T01:42:36.499Z,92.63
2019-04-30T01:45:06.428Z,92.56
2019-04-30T01:47:34.692Z,92.55
2019-04-30T01:50:04.812Z,91.91
2019-04-30T01:52:51.072Z,91.80
2019-04-30T01:55:20.990Z,91.73
2019-04-30T01:57:50.881Z,91.80
2019-04-30T02:00:20.808Z,92.01
2019-04-30T02:02:49.519Z,91.95
2019-04-30T02:05:18.852Z,92.20
2019-04-30T02:07:48.690Z,92.34
2019-04-30T02:10:16.383Z,92.63
2019-04-30T02:12:44.627Z,92.53
2019-04-30T02:15:12.897Z,92.69
2019-04-30T02:17:41.159Z,92.36
2019-04-30T02:20:09.994Z,92.56
2019-04-30T02:22:38.991Z,92.28
2019-04-30T02:25:09.679Z,92.27
2019-04-30T02:27:39.030Z,92.15
2019-04-30T02:30:11.168Z,91.89
2019-04-30T02:32:39.542Z,92.33
2019-04-30T02:35:28.797Z,91.69
2019-04-30T02:40:55.019Z,92.00
2019-04-30T02:43:23.339Z,91.99
2019-04-30T02:45:51.649Z,91.81
2019-04-30T02:48:20.459Z,91.96
2019-04-30T02:50:49.217Z,91.70
2019-04-30T02:53:52.051Z,91.83
2019-04-30T02:56:21.826Z,91.65
2019-04-30T02:58:50.726Z,91.65
2019-04-30T03:01:20.237Z,91.91
2019-04-30T03:03:50.047Z,92.13
2019-04-30T03:06:23.211Z,92.06
2019-04-30T03:08:51.058Z,92.06
2019-04-30T03:11:20.623Z,92.20
2019-04-30T03:13:49.532Z,92.08
2019-04-30T03:16:20.682Z,91.97
2019-04-30T03:18:50.936Z,91.89
2019-04-30T03:21:20.844Z,92.26
2019-04-30T03:23:50.312Z,91.91
2019-04-30T03:26:20.044Z,91.98
2019-04-30T03:28:49.402Z,91.98
2019-04-30T03:31:21.987Z,92.25
2019-04-30T03:33:51.955Z,92.52
2019-04-30T03:36:21.613Z,92.81
2019-04-30T03:38:50.070Z,92.71
2019-04-30T03:41:19.879Z,92.56
2019-04-30T03:43:50.335Z,92.25
2019-04-30T03:46:19.452Z,92.02
2019-04-30T03:48:50.197Z,92.16
2019-04-30T03:51:19.935Z,91.84
2019-04-30T03:53:50.158Z,91.28
2019-04-30T03:56:20.005Z,91.31
2019-04-30T03:58:50.200Z,90.88
2019-04-30T04:01:35.316Z,90.69
2019-04-30T04:04:21.142Z,90.82
2019-04-30T04:09:31.528Z,90.43
2019-04-30T04:12:01.451Z,89.90
2019-04-30T04:14:29.772Z,90.15
2019-04-30T04:17:00.042Z,89.58
2019-04-30T04:19:29.257Z,89.90
2019-04-30T04:21:59.971Z,90.10
2019-04-30T04:24:30.087Z,89.82
2019-04-30T04:26:59.672Z,89.57
2019-04-30T04:29:29.805Z,89.73
2019-04-30T04:32:00.711Z,90.03
2019-04-30T04:34:30.142Z,89.60
2019-04-30T04:37:00.059Z,89.73
2019-04-30T04:39:29.731Z,89.40
2019-04-30T04:41:59.936Z,89.24
2019-04-30T04:44:29.448Z,89.74
2019-04-30T04:47:00.022Z,89.29
2019-04-30T04:49:30.322Z,88.85
2019-04-30T04:51:59.347Z,88.71
2019-04-30T04:54:29.795Z,88.53
2019-04-30T04:57:10.945Z,88.39
2019-04-30T04:59:29.675Z,88.89
2019-04-30T05:01:59.848Z,88.37
2019-04-30T05:04:29.870Z,88.36
2019-04-30T05:07:00.094Z,87.98
2019-04-30T05:09:28.645Z,88.64
2019-04-30T05:11:58.592Z,88.31
2019-04-30T05:14:26.267Z,87.99
2019-04-30T05:16:54.536Z,88.77
2019-04-30T05:19:24.756Z,89.06
2019-04-30T05:21:53.023Z,89.32
2019-04-30T05:24:21.330Z,89.87
2019-04-30T05:26:49.574Z,90.08
2019-04-30T05:29:19.088Z,90.05
2019-04-30T05:31:48.565Z,90.51
2019-04-30T05:34:18.860Z,90.54
2019-04-30T05:36:48.990Z,90.65
2019-04-30T05:39:18.936Z,90.72
2019-04-30T05:41:49.185Z,91.02
2019-04-30T05:44:18.516Z,91.23
2019-04-30T05:46:47.024Z,91.53
2019-04-30T05:49:15.300Z,91.78
2019-04-30T05:51:53.545Z,91.99
2019-04-30T05:54:13.562Z,92.04
2019-04-30T05:56:42.805Z,92.19
2019-04-30T05:59:11.111Z,92.22
2019-04-30T06:01:39.649Z,92.62
2019-04-30T06:04:09.515Z,92.35
2019-04-30T06:06:38.895Z,92.38
2019-04-30T06:09:14.887Z,92.29
2019-04-30T06:11:55.761Z,92.77
2019-04-30T06:14:31.795Z,92.67
2019-04-30T06:17:11.515Z,92.66
2019-04-30T06:19:39.271Z,92.29
2019-04-30T06:22:10.145Z,92.22
2019-04-30T06:24:39.406Z,92.21
2019-04-30T06:27:10.566Z,92.67
2019-04-30T06:29:39.071Z,92.98
2019-04-30T06:32:08.642Z,92.80
2019-04-30T06:34:36.384Z,92.53
2019-04-30T06:37:04.720Z,92.23
2019-04-30T06:39:32.998Z,92.50
2019-04-30T06:42:06.480Z,92.26
2019-04-30T06:44:37.445Z,92.47
2019-04-30T06:47:01.353Z,92.01
2019-04-30T06:49:30.014Z,92.17
2019-04-30T06:51:58.872Z,92.29
2019-04-30T06:54:28.771Z,91.82
2019-04-30T06:56:57.085Z,92.12
2019-04-30T06:59:25.353Z,91.99
2019-04-30T07:01:54.177Z,91.67
2019-04-30T07:04:24.287Z,92.21
2019-04-30T07:06:53.009Z,91.54
2019-04-30T07:09:51.394Z,91.48
2019-04-30T07:12:27.853Z,92.38
2019-04-30T07:14:52.893Z,91.59
2019-04-30T07:17:21.141Z,90.42
2019-04-30T07:19:54.155Z,91.15
2019-04-30T07:22:36.240Z,91.03
2019-04-30T07:24:49.740Z,90.98
2019-04-30T07:27:23.789Z,90.87
2019-04-30T07:29:49.543Z,91.02
2019-04-30T07:32:19.698Z,90.97
2019-04-30T07:34:49.543Z,90.84
2019-04-30T07:37:24.245Z,90.31
2019-04-30T07:39:49.383Z,90.73
2019-04-30T07:42:19.274Z,90.95
2019-04-30T07:44:50.065Z,90.23
2019-04-30T07:47:19.494Z,90.52
2019-04-30T07:52:21.083Z,89.77
2019-04-30T07:54:51.500Z,90.29
2019-04-30T07:57:19.261Z,89.86
2019-04-30T07:59:49.704Z,90.24
2019-04-30T08:02:20.837Z,90.41
2019-04-30T08:04:51.204Z,90.38
2019-04-30T08:07:20.510Z,90.14
2019-04-30T08:09:38.330Z,90.13
2019-04-30T08:09:49.343Z,89.42
2019-04-30T08:12:25.576Z,90.19
2019-04-30T08:14:49.443Z,91.10
2019-04-30T08:17:18.840Z,91.25
2019-04-30T08:19:49.066Z,91.20
2019-04-30T08:22:19.469Z,91.72
2019-04-30T08:24:49.180Z,90.11
2019-04-30T08:27:19.665Z,89.85
2019-04-30T08:29:49.434Z,90.50
2019-04-30T08:32:19.091Z,89.67
2019-04-30T08:34:47.484Z,88.81
2019-04-30T08:37:19.634Z,89.86
2019-04-30T08:39:49.488Z,89.93
2019-04-30T08:42:29.067Z,89.78
2019-04-30T08:44:48.526Z,90.41
2019-04-30T08:47:18.816Z,89.77
2019-04-30T08:49:47.761Z,89.51
2019-04-30T08:52:19.152Z,88.87
2019-04-30T08:54:46.940Z,90.27
2019-04-30T08:57:15.209Z,90.04
2019-04-30T08:59:43.452Z,90.30
2019-04-30T09:02:15.812Z,90.28
2019-04-30T09:04:41.703Z,90.19
2019-04-30T09:07:10.907Z,90.15
2019-04-30T09:09:40.015Z,90.84
2019-04-30T09:12:09.956Z,91.02
2019-04-30T09:14:40.421Z,90.20
2019-04-30T09:17:09.233Z,90.65
2019-04-30T09:19:38.646Z,90.42
2019-04-30T09:22:14.349Z,90.82
2019-04-30T09:24:39.111Z,91.57
2019-04-30T09:27:10.641Z,91.51
2019-04-30T09:29:39.158Z,91.33
2019-04-30T09:32:09.238Z,92.38
2019-04-30T09:34:38.468Z,92.68
2019-04-30T09:37:08.943Z,92.71
2019-04-30T09:39:39.326Z,92.23
2019-04-30T09:42:09.468Z,92.65
2019-04-30T09:44:39.022Z,92.69
2019-04-30T09:47:08.909Z,92.94
2019-04-30T09:49:39.131Z,93.27
2019-04-30T09:52:09.105Z,93.48
2019-04-30T09:54:39.566Z,93.43
2019-04-30T09:57:08.749Z,93.27
2019-04-30T09:59:38.803Z,93.16
2019-04-30T10:02:09.222Z,93.39
2019-04-30T10:04:39.677Z,92.65
2019-04-30T10:07:09.566Z,92.25
2019-04-30T10:09:37.947Z,92.55
2019-04-30T10:12:10.509Z,92.19
2019-04-30T10:14:41.003Z,92.39
2019-04-30T10:17:21.669Z,92.68
2019-04-30T10:19:51.401Z,91.90
2019-04-30T10:22:20.757Z,92.85
2019-04-30T10:24:49.650Z,92.43
2019-04-30T10:27:19.104Z,92.05
2019-04-30T10:29:47.018Z,91.64
2019-04-30T10:32:15.305Z,91.05
2019-04-30T10:34:44.174Z,91.35
2019-04-30T10:37:13.850Z,91.87
2019-04-30T10:39:42.101Z,91.83
2019-04-30T10:42:11.676Z,91.64
2019-04-30T10:44:40.487Z,91.51
2019-04-30T10:47:09.420Z,91.31
2019-04-30T10:49:38.968Z,91.34
2019-04-30T10:52:09.191Z,91.73
2019-04-30T10:54:38.926Z,91.28
2019-04-30T10:57:08.701Z,92.27
2019-04-30T10:59:36.483Z,92.69
2019-04-30T11:02:05.326Z,91.44
2019-04-30T11:04:33.742Z,92.31
2019-04-30T11:07:02.005Z,92.15
2019-04-30T11:09:30.993Z,92.40
2019-04-30T11:12:02.795Z,92.05
2019-04-30T11:14:30.039Z,92.22
2019-04-30T11:16:59.915Z,93.65
2019-04-30T11:19:29.290Z,92.49
2019-04-30T11:21:57.919Z,92.52
2019-04-30T11:24:35.964Z,92.81
2019-04-30T11:26:59.821Z,92.88
2019-04-30T11:29:30.789Z,91.71
2019-04-30T11:32:00.700Z,91.10
2019-04-30T11:34:29.119Z,92.24
2019-04-30T11:36:57.377Z,92.17
2019-04-30T11:39:26.147Z,90.98
2019-04-30T11:41:54.407Z,90.83
2019-04-30T11:44:30.803Z,90.56
2019-04-30T11:47:00.079Z,90.93
2019-04-30T11:49:28.413Z,91.37
2019-04-30T11:51:57.611Z,91.02
2019-04-30T11:54:25.883Z,91.40
2019-04-30T11:56:54.577Z,91.47
2019-04-30T11:59:22.868Z,90.28
2019-04-30T12:01:52.771Z,90.89
2019-04-30T12:04:21.050Z,90.73
2019-04-30T12:06:49.795Z,89.88
2019-04-30T12:09:20.136Z,90.18
2019-04-30T12:11:50.513Z,89.52
2019-04-30T12:14:20.291Z,90.04
2019-04-30T12:16:50.722Z,89.37
2019-04-30T12:19:18.939Z,89.20
2019-04-30T12:21:48.820Z,89.86
2019-04-30T12:24:17.100Z,89.50
2019-04-30T12:26:45.350Z,89.29
2019-04-30T12:29:13.645Z,85.65
2019-04-30T12:31:41.900Z,88.08
2019-04-30T12:34:10.176Z,87.54
2019-04-30T12:36:38.856Z,86.51
2019-04-30T12:39:07.176Z,87.25
2019-04-30T12:41:35.439Z,87.45
2019-04-30T12:44:03.751Z,85.28
2019-04-30T12:46:32.002Z,85.59
2019-04-30T12:49:01.907Z,86.86
2019-04-30T12:51:31.812Z,86.77
2019-04-30T12:54:01.713Z,87.40
2019-04-30T12:56:55.536Z,87.48
2019-04-30T12:59:23.811Z,85.85
2019-04-30T13:01:52.074Z,86.02
2019-04-30T13:04:20.363Z,86.79
2019-04-30T13:06:49.565Z,85.97
2019-04-30T13:09:20.296Z,86.24
2019-04-30T13:11:50.716Z,86.46
2019-04-30T13:14:19.945Z,86.16
2019-04-30T13:16:49.079Z,86.19
2019-04-30T13:19:17.447Z,86.19
2019-04-30T13:21:45.747Z,85.21
2019-04-30T13:24:14.070Z,85.86
2019-04-30T13:26:42.364Z,85.79
2019-04-30T13:29:12.258Z,86.24
2019-04-30T13:31:40.548Z,85.62
2019-04-30T13:34:26.913Z,85.95
2019-04-30T13:36:55.191Z,85.60
2019-04-30T13:39:29.198Z,86.04
2019-04-30T13:42:15.104Z,85.40
2019-04-30T13:44:36.546Z,86.27
2019-04-30T13:47:04.819Z,86.55
2019-04-30T13:49:33.076Z,86.49
2019-04-30T13:52:01.352Z,85.67
2019-04-30T13:54:29.592Z,86.29
2019-04-30T13:56:59.128Z,85.17
2019-04-30T13:59:27.394Z,85.49
2019-04-30T14:01:55.674Z,84.95
2019-04-30T14:04:40.845Z,85.21
2019-04-30T14:07:10.759Z,85.39
2019-04-30T14:09:39.180Z,84.41
2019-04-30T14:12:07.519Z,84.01
2019-04-30T14:14:36.647Z,84.80
2019-04-30T14:17:04.994Z,85.02
2019-04-30T14:19:33.243Z,82.98
2019-04-30T14:22:01.514Z,83.71
2019-04-30T14:24:29.774Z,83.30
2019-04-30T14:26:59.078Z,83.35
2019-04-30T14:29:29.842Z,83.47
2019-04-30T14:31:58.725Z,81.41
2019-04-30T14:34:28.468Z,81.93
2019-04-30T14:36:56.439Z,83.85
2019-04-30T14:39:24.731Z,82.49
2019-04-30T14:41:53.657Z,80.65
2019-04-30T14:44:24.470Z,79.90
2019-04-30T14:47:12.479Z,81.35
2019-04-30T14:49:59.676Z,79.64
2019-04-30T14:52:21.311Z,77.14
2019-04-30T14:54:53.875Z,80.10
2019-04-30T14:57:33.589Z,78.96
2019-04-30T15:00:05.786Z,75.71
2019-04-30T15:02:44.633Z,73.82
2019-04-30T15:05:12.891Z,75.02
2019-04-30T15:07:41.175Z,76.20
2019-04-30T15:10:09.432Z,75.11
2019-04-30T15:12:37.709Z,76.50
2019-04-30T15:15:09.182Z,76.79
2019-04-30T15:17:39.285Z,78.66
2019-04-30T15:20:08.763Z,78.88
2019-04-30T15:22:38.957Z,78.27
2019-04-30T15:25:07.165Z,78.36
2019-04-30T15:27:35.424Z,79.21
2019-04-30T15:30:07.777Z,77.17
2019-04-30T15:32:39.492Z,76.24
2019-04-30T15:35:08.838Z,76.34
2019-04-30T15:37:38.968Z,76.47
2019-04-30T15:40:09.118Z,75.38
2019-04-30T15:42:39.067Z,75.73
2019-04-30T15:45:09.258Z,76.34
2019-04-30T15:47:38.718Z,76.33
2019-04-30T15:50:09.785Z,75.92
2019-04-30T15:52:38.771Z,76.65
2019-04-30T15:55:09.072Z,77.96
2019-04-30T15:57:39.291Z,76.50
2019-04-30T16:00:07.587Z,77.88
2019-04-30T16:02:39.888Z,77.10
2019-04-30T16:05:09.870Z,77.33
2019-04-30T16:07:40.847Z,78.08
2019-04-30T16:10:28.589Z,76.42
2019-04-30T16:13:09.614Z,76.07
2019-04-30T16:15:38.537Z,75.99
2019-04-30T16:18:06.355Z,75.65
2019-04-30T16:20:35.216Z,76.06
2019-04-30T16:23:03.465Z,77.16
2019-04-30T16:25:31.755Z,76.95
2019-04-30T16:28:00.021Z,75.92
2019-04-30T16:30:28.905Z,77.08
2019-04-30T16:32:59.493Z,76.65
2019-04-30T16:35:29.426Z,76.45
2019-04-30T16:37:59.260Z,76.16
2019-04-30T16:40:29.014Z,76.00
2019-04-30T16:42:59.406Z,76.20
2019-04-30T16:45:29.055Z,75.88
2019-04-30T16:47:57.357Z,76.24
2019-04-30T16:50:25.947Z,75.91
2019-04-30T16:52:54.207Z,75.99
2019-04-30T16:55:22.491Z,74.99
2019-04-30T16:57:50.742Z,74.91
2019-04-30T17:00:20.108Z,75.20
2019-04-30T17:02:50.154Z,76.54
2019-04-30T17:05:22.786Z,76.73
2019-04-30T17:07:59.258Z,77.44
2019-04-30T17:10:29.833Z,74.54
2019-04-30T17:13:14.504Z,74.58
2019-04-30T17:15:44.261Z,77.29
2019-04-30T17:18:12.529Z,77.93
2019-04-30T17:20:41.388Z,78.12
2019-04-30T17:23:09.666Z,77.85
2019-04-30T17:25:38.248Z,78.10
2019-04-30T17:28:08.749Z,77.51
2019-04-30T17:30:36.506Z,77.67
2019-04-30T17:33:04.831Z,78.88
2019-04-30T17:35:33.115Z,79.25
2019-04-30T17:38:01.375Z,79.40
2019-04-30T17:40:29.647Z,80.12
2019-04-30T17:42:57.930Z,80.50
2019-04-30T17:45:26.214Z,80.84
2019-04-30T17:47:55.337Z,79.81
2019-04-30T17:50:23.629Z,80.51
2019-04-30T17:52:51.888Z,80.21
2019-04-30T17:55:20.180Z,79.60
2019-04-30T17:57:48.803Z,80.51
2019-04-30T18:00:21.660Z,80.70
2019-04-30T18:02:48.423Z,81.30
2019-04-30T18:05:16.716Z,81.50
2019-04-30T18:07:44.978Z,81.14
2019-04-30T18:10:14.939Z,80.92
2019-04-30T18:12:43.195Z,79.99
2019-04-30T18:15:14.273Z,80.72
2019-04-30T18:17:44.201Z,81.08
2019-04-30T18:20:22.933Z,81.38
2019-04-30T18:22:52.832Z,81.41
2019-04-30T18:25:38.875Z,81.48
2019-04-30T18:28:09.140Z,81.52
2019-04-30T18:30:39.270Z,81.93
2019-04-30T18:33:09.707Z,82.40
2019-04-30T18:35:38.806Z,82.10
2019-04-30T18:38:07.239Z,81.78
2019-04-30T18:40:35.528Z,81.82
2019-04-30T18:43:04.204Z,81.84
2019-04-30T18:45:32.475Z,81.97
2019-04-30T18:48:01.713Z,81.77
2019-04-30T18:50:30.276Z,81.94
2019-04-30T18:53:00.183Z,82.26
2019-04-30T18:55:28.465Z,82.32
2019-04-30T18:57:59.353Z,82.78
2019-04-30T19:00:29.398Z,83.13
2019-04-30T19:02:58.619Z,83.63
2019-04-30T19:05:30.892Z,83.80
2019-04-30T19:07:59.882Z,84.15
2019-04-30T19:10:30.093Z,84.82
2019-04-30T19:13:00.016Z,85.28
2019-04-30T19:16:14.850Z,85.75
2019-04-30T19:18:36.388Z,86.14
2019-04-30T19:21:06.475Z,86.45
2019-04-30T19:23:34.752Z,87.01
2019-04-30T19:26:03.061Z,87.21
2019-04-30T19:28:31.331Z,87.07
2019-04-30T19:31:00.998Z,86.88
2019-04-30T19:33:31.149Z,86.56
2019-04-30T19:35:59.345Z,86.04
2019-04-30T19:38:27.611Z,85.53
2019-04-30T19:40:55.868Z,85.22
2019-04-30T19:43:24.485Z,84.91
2019-04-30T19:45:53.633Z,84.96
2019-04-30T19:48:21.913Z,85.04
2019-04-30T19:50:50.183Z,85.40
2019-04-30T19:53:22.014Z,85.84
2019-04-30T19:55:49.244Z,86.43
2019-04-30T19:58:26.117Z,86.39
2019-04-30T20:00:49.710Z,86.22
2019-04-30T20:03:19.605Z,86.04
2019-04-30T20:05:47.801Z,86.23
2019-04-30T20:08:16.090Z,86.53
2019-04-30T20:10:44.330Z,86.84
2019-04-30T20:13:12.606Z,86.71
2019-04-30T20:15:40.871Z,87.09
2019-04-30T20:18:09.160Z,87.70
2019-04-30T20:20:39.818Z,88.14
2019-04-30T20:23:08.167Z,88.25
2019-04-30T20:25:36.428Z,88.04
2019-04-30T20:28:04.802Z,88.23
2019-04-30T20:30:33.092Z,88.21
2019-04-30T20:33:01.385Z,88.05
2019-04-30T20:35:29.636Z,87.82
2019-04-30T20:38:16.087Z,87.53
2019-04-30T20:40:57.821Z,87.37
2019-04-30T20:43:15.985Z,87.84
2019-04-30T20:45:44.235Z,87.75
2019-04-30T20:48:12.612Z,88.32
2019-04-30T20:50:40.843Z,88.69
2019-04-30T20:53:09.125Z,88.83
2019-04-30T20:55:40.585Z,89.13
2019-04-30T20:58:09.346Z,89.45
2019-04-30T21:00:37.443Z,89.06
2019-04-30T21:03:05.734Z,88.46
2019-04-30T21:05:34.026Z,88.03
2019-04-30T21:08:02.357Z,87.82
2019-04-30T21:10:30.607Z,87.70
2019-04-30T21:13:02.221Z,87.94
2019-04-30T21:15:30.373Z,88.21
2019-04-30T21:17:58.799Z,88.04
2019-04-30T21:20:28.903Z,87.85
2019-04-30T21:22:57.082Z,87.53
2019-04-30T21:25:25.330Z,87.45
2019-04-30T21:27:53.583Z,87.45
2019-04-30T21:30:21.859Z,87.35
2019-04-30T21:35:48.564Z,86.74
2019-04-30T21:38:16.741Z,86.56
2019-04-30T21:40:44.990Z,86.63
2019-04-30T21:43:13.266Z,86.75
2019-04-30T21:45:41.527Z,86.84
2019-04-30T21:48:09.796Z,87.07
2019-04-30T21:50:39.700Z,87.60
2019-04-30T21:53:09.909Z,87.72
2019-04-30T21:55:39.828Z,87.93
2019-04-30T21:58:09.578Z,87.84
2019-04-30T22:00:42.347Z,87.62
2019-04-30T22:03:10.593Z,87.72
2019-04-30T22:05:38.948Z,88.11
2019-04-30T22:08:09.075Z,88.36
2019-04-30T22:10:37.199Z,88.78
2019-04-30T22:13:05.450Z,88.48
2019-04-30T22:15:33.750Z,88.63
2019-04-30T22:18:02.001Z,88.77
2019-04-30T22:20:30.275Z,89.20
2019-04-30T22:22:58.533Z,89.12
2019-04-30T22:25:26.823Z,89.44
2019-04-30T22:27:55.150Z,89.41
2019-04-30T22:30:23.424Z,89.10
2019-04-30T22:32:55.698Z,88.93
2019-04-30T22:35:25.616Z,88.80
2019-04-30T22:37:55.523Z,88.96
2019-04-30T22:40:23.788Z,89.12
2019-04-30T22:42:52.049Z,88.81
2019-04-30T22:45:21.956Z,88.67
2019-04-30T22:47:50.440Z,88.74
2019-04-30T22:50:18.817Z,88.49
2019-04-30T22:52:47.066Z,88.53
2019-04-30T22:55:15.337Z,88.73
2019-04-30T22:57:43.584Z,89.54
2019-04-30T23:00:13.497Z,89.83
2019-04-30T23:02:46.078Z,89.75
2019-04-30T23:05:15.822Z,89.96
2019-04-30T23:07:43.434Z,89.83
2019-04-30T23:10:13.353Z,89.86
2019-04-30T23:12:42.548Z,90.03
2019-04-30T23:15:10.802Z,90.03
2019-04-30T23:17:39.081Z,90.15
2019-04-30T23:20:07.802Z,91.08
2019-04-30T23:22:36.075Z,91.43
2019-04-30T23:25:06.173Z,91.62
2019-04-30T23:27:34.452Z,91.31
2019-04-30T23:30:03.866Z,90.61
2019-04-30T23:32:32.260Z,89.91
2019-04-30T23:35:00.520Z,90.35
2019-04-30T23:37:28.800Z,90.91
2019-04-30T23:39:59.056Z,90.88
2019-04-30T23:42:27.343Z,90.86
2019-04-30T23:44:55.610Z,90.67
2019-04-30T23:47:23.896Z,90.72
2019-04-30T23:49:52.149Z,90.77
2019-04-30T23:52:20.428Z,90.96
2019-04-30T23:54:48.676Z,90.98
2019-04-30T23:57:16.961Z,91.12
2019-04-30T23:59:45.209Z,90.96
